Time;durP1;ratioP1;P1;durP2;ratioP2;P2;SDS_P1;SDS_P2;PMS_P1;PMS_P2;Temp;Humidity;BMP_temperature;BMP_pressure;BME280_temperature;BME280_humidity;BME280_pressure;Samples;Min_cycle;Max_cycle;Signal;HPM_P1;HPM_P2
2022/12/10 00:01:52;;;;;;;;;;;;;;;-3.61;100.00;100762.88;5013349;28;19917;-65
2022/12/10 00:04:18;;;;;;;;;;;;;;;-3.61;100.00;100771.00;5013319;28;20000;-65
2022/12/10 00:06:43;;;;;;;;;;;;;;;-3.58;100.00;100772.44;5013323;28;19917;-65
2022/12/10 00:09:13;;;;;;;;;;;;;;;-3.58;100.00;100776.00;5013071;28;19922;-65
2022/12/10 00:11:39;;;;;;;;;;;;;;;-3.57;100.00;100777.66;5013066;28;20039;-65
2022/12/10 00:14:06;;;;;;;;;;;;;;;-3.56;100.00;100778.47;5013021;28;20064;-66
2022/12/10 00:16:33;;;;;;;;;;;;;;;-3.59;100.00;100774.31;5013336;28;20373;-65
2022/12/10 00:18:58;;;;;;;;;;;;;;;-3.56;100.00;100781.19;5013220;28;19928;-66
2022/12/10 00:21:25;;;;;;;;;;;;;;;-3.55;100.00;100778.28;5007115;28;20009;-65
2022/12/10 00:23:50;;;;;;;;;;;;;;;-3.53;100.00;100783.47;4996828;28;19925;-65
2022/12/10 00:26:20;;;;;;;;;;;;;;;-3.50;100.00;100778.44;4995971;28;19914;-65
2022/12/10 00:28:46;;;;;;;;;;;;;;;-3.46;100.00;100774.28;4996236;28;19944;-65
2022/12/10 00:31:13;;;;;;;;;;;;;;;-3.40;100.00;100769.88;4993120;28;19918;-64
2022/12/10 00:33:38;;;;;;;;;;;;;;;-3.34;100.00;100771.72;4995837;28;20074;-65
2022/12/10 00:36:13;;;;;;;;;;;;;;;-3.28;100.00;100775.44;4995626;28;20373;-66
2022/12/10 00:38:40;;;;;;;;;;;;;;;-3.20;100.00;100785.19;4995523;28;19940;-62
2022/12/10 00:41:05;;;;;;;;;;;;;;;-3.17;100.00;100787.47;4995516;28;20042;-67
2022/12/10 00:43:30;;;;;;;;;;;;;;;-3.12;100.00;100784.94;4995581;28;20366;-67
2022/12/10 00:45:56;;;;;;;;;;;;;;;-3.12;100.00;100790.38;4995606;28;19914;-67
2022/12/10 00:48:21;;;;;;;;;;;;;;;-3.17;100.00;100788.31;4995614;28;20369;-67
2022/12/10 00:51:00;;;;;;;;;;;;;;;-3.18;100.00;100783.09;4995487;28;20024;-65
2022/12/10 00:53:26;;;;;;;;;;;;;;;-3.17;100.00;100776.63;4995545;28;20392;-65
2022/12/10 00:55:51;;;;;;;;;;;;;;;-3.16;100.00;100767.47;4995478;28;19917;-65
2022/12/10 00:58:17;;;;;;;;;;;;;;;-3.18;100.00;100767.69;4995092;28;19955;-65
2022/12/10 01:00:42;;;;;;;;;;;;;;;-3.18;100.00;100765.00;4995069;28;19968;-65
2022/12/10 01:03:07;;;;;;;;;;;;;;;-3.21;100.00;100760.00;4995203;28;19918;-65
2022/12/10 01:05:32;;;;;;;;;;;;;;;-3.26;100.00;100753.59;4995201;28;19914;-65
2022/12/10 01:07:58;;;;;;;;;;;;;;;-3.33;100.00;100756.31;4995060;28;20052;-64
2022/12/10 01:10:23;;;;;;;;;;;;;;;-3.36;100.00;100757.59;4994141;28;19914;-64
2022/12/10 01:12:48;;;;;;;;;;;;;;;-3.39;100.00;100758.00;4994840;28;20238;-64
2022/12/10 01:15:13;;;;;;;;;;;;;;;-3.43;100.00;100759.50;4994917;28;19920;-65
2022/12/10 01:17:38;;;;;;;;;;;;;;;-3.43;100.00;100778.44;4994738;28;20306;-65
2022/12/10 01:20:04;;;;;;;;;;;;;;;-3.43;100.00;100781.13;4994662;28;19914;-65
2022/12/10 01:22:29;;;;;;;;;;;;;;;-3.46;100.00;100787.81;4994768;28;19914;-65
2022/12/10 01:24:54;;;;;;;;;;;;;;;-3.49;100.00;100788.22;4994849;28;19976;-64
2022/12/10 01:27:19;;;;;;;;;;;;;;;-3.52;100.00;100788.66;4991966;28;20045;-64
2022/12/10 01:29:45;;;;;;;;;;;;;;;-3.52;100.00;100782.44;4994932;28;20012;-64
2022/12/10 01:32:10;;;;;;;;;;;;;;;-3.51;100.00;100778.69;4994930;28;19921;-65
2022/12/10 01:34:35;;;;;;;;;;;;;;;-3.49;100.00;100776.56;4994757;28;19917;-65
2022/12/10 01:37:00;;;;;;;;;;;;;;;-3.51;100.00;100771.38;4994598;28;19918;-64
2022/12/10 01:39:25;;;;;;;;;;;;;;;-3.52;100.00;100774.31;4994535;28;19918;-65
2022/12/10 01:41:53;;;;;;;;;;;;;;;-3.55;100.00;100764.75;4994685;28;20017;-65
2022/12/10 01:44:18;;;;;;;;;;;;;;;-3.56;100.00;100768.50;4994801;28;19914;-65
2022/12/10 01:46:45;;;;;;;;;;;;;;;-3.56;100.00;100781.19;4994606;28;20476;-64
2022/12/10 01:49:13;;;;;;;;;;;;;;;-3.57;100.00;100788.47;4994555;28;20040;-65
2022/12/10 01:51:39;;;;;;;;;;;;;;;-3.58;100.00;100786.81;4994327;28;19914;-64
2022/12/10 01:54:07;;;;;;;;;;;;;;;-3.55;100.00;100791.81;4994208;28;19937;-64
2022/12/10 01:56:36;;;;;;;;;;;;;;;-3.56;100.00;100783.88;4994491;28;19922;-65
2022/12/10 01:59:01;;;;;;;;;;;;;;;-3.50;100.00;100786.56;4994188;28;19920;-65
2022/12/10 02:01:32;;;;;;;;;;;;;;;-3.48;100.00;100792.59;4994092;28;19914;-65
2022/12/10 02:04:09;;;;;;;;;;;;;;;-3.48;100.00;100789.03;4994191;28;20000;-65
2022/12/10 02:06:53;;;;;;;;;;;;;;;-3.48;100.00;100795.31;4994075;28;19924;-65
2022/12/10 02:09:24;;;;;;;;;;;;;;;-3.47;100.00;100786.16;4994096;28;19917;-65
2022/12/10 02:11:57;;;;;;;;;;;;;;;-3.45;100.00;100786.75;4994058;28;20285;-64
2022/12/10 02:14:22;;;;;;;;;;;;;;;-3.42;100.00;100785.50;4993738;28;20008;-64
2022/12/10 02:17:01;;;;;;;;;;;;;;;-3.39;100.00;100784.25;4993878;28;20060;-64
2022/12/10 02:19:44;;;;;;;;;;;;;;;-3.35;100.00;100788.16;4993836;28;19914;-64
2022/12/10 02:22:11;;;;;;;;;;;;;;;-3.33;100.00;100788.78;4992457;28;20009;-64
2022/12/10 02:24:38;;;;;;;;;;;;;;;-3.33;100.00;100789.63;4992465;28;19913;-64
2022/12/10 02:27:10;;;;;;;;;;;;;;;-3.34;100.00;100789.81;5008672;28;20650;-64
2022/12/10 02:29:36;;;;;;;;;;;;;;;-3.35;100.00;100783.59;4993862;28;19914;-68
2022/12/10 02:32:05;;;;;;;;;;;;;;;-3.36;100.00;100784.63;4993556;28;19918;-64
2022/12/10 02:34:33;;;;;;;;;;;;;;;-3.35;100.00;100791.72;4993491;28;19917;-64
2022/12/10 02:37:02;;;;;;;;;;;;;;;-3.35;100.00;100793.56;4993508;28;20013;-64
2022/12/10 02:39:31;;;;;;;;;;;;;;;-3.43;100.00;100791.97;4993374;28;19914;-64
2022/12/10 02:41:58;;;;;;;;;;;;;;;-3.42;100.00;100792.78;4993527;28;19913;-64
2022/12/10 02:44:24;;;;;;;;;;;;;;;-3.45;100.00;100794.84;4993367;28;19935;-64
2022/12/10 02:46:51;;;;;;;;;;;;;;;-3.46;100.00;100786.97;4993370;28;19914;-64
2022/12/10 02:49:17;;;;;;;;;;;;;;;-3.46;100.00;100785.09;4993585;28;20291;-64
2022/12/10 02:51:42;;;;;;;;;;;;;;;-3.48;100.00;100787.19;4993364;28;19924;-64
2022/12/10 02:54:27;;;;;;;;;;;;;;;-3.48;100.00;100787.19;4993336;28;20000;-64
2022/12/10 02:56:58;;;;;;;;;;;;;;;-3.47;100.00;100794.25;4993172;28;19957;-64
2022/12/10 02:59:29;;;;;;;;;;;;;;;-3.43;100.00;100796.53;4993115;28;20385;-63
2022/12/10 03:02:01;;;;;;;;;;;;;;;-3.34;100.00;100790.66;4993121;28;19969;-64
2022/12/10 03:04:44;;;;;;;;;;;;;;;-3.27;100.00;100792.50;4992984;28;19924;-63
2022/12/10 03:07:25;;;;;;;;;;;;;;;-3.26;100.00;100797.72;5007932;28;20412;-63
2022/12/10 03:09:58;;;;;;;;;;;;;;;-3.21;100.00;100797.88;4993129;28;19914;-64
2022/12/10 03:12:43;;;;;;;;;;;;;;;-3.25;100.00;100798.53;4993037;28;19917;-64
2022/12/10 03:15:10;;;;;;;;;;;;;;;-3.30;100.00;100794.59;4992544;28;19940;-64
2022/12/10 03:17:36;;;;;;;;;;;;;;;-3.30;100.00;100799.19;4992749;28;19968;-63
2022/12/10 03:20:03;;;;;;;;;;;;;;;-3.26;100.00;100800.44;4992746;28;19996;-64
2022/12/10 03:22:29;;;;;;;;;;;;;;;-3.25;100.00;100793.13;4990771;28;19921;-63
2022/12/10 03:24:54;;;;;;;;;;;;;;;-3.25;100.00;100791.25;4991854;28;19913;-63
2022/12/10 03:27:22;;;;;;;;;;;;;;;-3.24;100.00;100792.09;4992636;28;19956;-64
2022/12/10 03:29:50;;;;;;;;;;;;;;;-3.25;100.00;100793.13;5003250;28;20464;-64
2022/12/10 03:32:16;;;;;;;;;;;;;;;-3.24;100.00;100790.19;5012607;28;19918;-64
2022/12/10 03:34:42;;;;;;;;;;;;;;;-3.22;100.00;100793.53;5011651;28;19913;-63
2022/12/10 03:37:08;;;;;;;;;;;;;;;-3.19;100.00;100789.53;5012255;28;19920;-64
2022/12/10 03:39:34;;;;;;;;;;;;;;;-3.18;100.00;100794.75;5012185;28;20322;-63
2022/12/10 03:41:59;;;;;;;;;;;;;;;-3.22;100.00;100790.81;5011871;28;19947;-63
2022/12/10 03:44:28;;;;;;;;;;;;;;;-3.20;100.00;100793.28;5010658;28;20326;-63
2022/12/10 03:46:53;;;;;;;;;;;;;;;-3.24;100.00;100794.78;5012185;28;19914;-63
2022/12/10 03:49:19;;;;;;;;;;;;;;;-3.27;100.00;100798.75;5012197;28;20365;-63
2022/12/10 03:51:44;;;;;;;;;;;;;;;-3.25;100.00;100804.75;5012228;28;20292;-64
2022/12/10 03:54:09;;;;;;;;;;;;;;;-3.21;100.00;100802.47;5012101;28;19930;-63
2022/12/10 03:56:34;;;;;;;;;;;;;;;-3.25;100.00;100804.75;5012023;28;19917;-63
2022/12/10 03:58:59;;;;;;;;;;;;;;;-3.21;100.00;100803.31;5011965;28;19929;-63
2022/12/10 04:01:25;;;;;;;;;;;;;;;-3.14;100.00;100806.81;5012260;28;19924;-63
2022/12/10 04:03:50;;;;;;;;;;;;;;;-3.18;100.00;100804.75;5011863;28;20305;-63
2022/12/10 04:06:17;;;;;;;;;;;;;;;-3.18;100.00;100813.72;5011917;28;19970;-65
2022/12/10 04:08:42;;;;;;;;;;;;;;;-3.23;100.00;100816.22;5011926;28;19987;-65
2022/12/10 04:11:08;;;;;;;;;;;;;;;-3.29;100.00;100812.47;5011828;28;20289;-64
2022/12/10 04:16:27;;;;;;;;;;;;;;;-3.20;100.00;100814.94;5012300;28;19920;-63
2022/12/10 04:19:02;;;;;;;;;;;;;;;-3.22;100.00;100814.34;5011905;28;20383;-63
2022/12/10 04:26:57;;;;;;;;;;;;;;;-3.17;100.00;100822.63;5012187;28;19941;-63
2022/12/10 04:29:24;;;;;;;;;;;;;;;-3.18;100.00;100818.28;5011444;28;19924;-63
2022/12/10 04:31:50;;;;;;;;;;;;;;;-3.15;100.00;100820.56;5011687;28;19913;-62
2022/12/10 04:34:15;;;;;;;;;;;;;;;-3.18;100.00;100812.84;5011809;28;19924;-62
2022/12/10 04:36:40;;;;;;;;;;;;;;;-3.15;100.00;100810.53;5011730;28;20012;-62
2022/12/10 04:39:06;;;;;;;;;;;;;;;-3.12;100.00;100812.00;5011701;28;19913;-63
2022/12/10 04:41:31;;;;;;;;;;;;;;;-3.01;100.00;100819.44;5011569;28;19913;-64
2022/12/10 04:43:56;;;;;;;;;;;;;;;-3.07;100.00;100812.19;5011684;28;19914;-64
2022/12/10 04:46:22;;;;;;;;;;;;;;;-3.10;100.00;100822.63;5013910;28;20377;-64
2022/12/10 04:48:47;;;;;;;;;;;;;;;-3.08;100.00;100818.63;5015023;28;19991;-64
2022/12/10 04:51:12;;;;;;;;;;;;;;;-3.10;100.00;100819.91;5015135;28;19936;-63
2022/12/10 04:53:37;;;;;;;;;;;;;;;-3.12;100.00;100820.13;5014810;28;19940;-64
2022/12/10 04:56:04;;;;;;;;;;;;;;;-3.12;100.00;100822.84;5014983;28;20404;-63
2022/12/10 04:58:30;;;;;;;;;;;;;;;-3.17;100.00;100818.06;5014872;28;20008;-62
2022/12/10 05:01:02;;;;;;;;;;;;;;;-3.14;100.00;100830.34;5014879;28;20238;-63
2022/12/10 05:03:28;;;;;;;;;;;;;;;-3.11;100.00;100831.78;5014655;28;19914;-64
2022/12/10 05:05:53;;;;;;;;;;;;;;;-3.13;100.00;100822.00;5014675;28;19924;-64
2022/12/10 05:08:18;;;;;;;;;;;;;;;-3.10;100.00;100826.13;5014714;28;19921;-64
2022/12/10 05:10:43;;;;;;;;;;;;;;;-3.03;100.00;100829.66;5014657;28;20289;-64
2022/12/10 05:13:08;;;;;;;;;;;;;;;-3.04;100.00;100829.84;5014449;28;19921;-64
2022/12/10 05:15:37;;;;;;;;;;;;;;;-2.96;100.00;100826.91;5014481;28;19917;-64
2022/12/10 05:18:02;;;;;;;;;;;;;;;-2.92;100.00;100822.72;5014359;28;19917;-64
2022/12/10 05:20:27;;;;;;;;;;;;;;;-2.91;100.00;100826.25;5014459;28;20227;-64
2022/12/10 05:25:52;;;;;;;;;;;;;;;-2.96;100.00;100823.38;5014244;28;20384;-64
2022/12/10 05:28:17;;;;;;;;;;;;;;;-2.94;100.00;100824.00;5014381;28;19919;-64
2022/12/10 05:30:42;;;;;;;;;;;;;;;-2.91;100.00;100837.09;5014208;28;20007;-64
2022/12/10 05:33:08;;;;;;;;;;;;;;;-2.93;100.00;100829.19;5013046;28;19945;-64
2022/12/10 05:35:33;;;;;;;;;;;;;;;-2.93;100.00;100825.66;5014238;28;20286;-63
2022/12/10 05:37:58;;;;;;;;;;;;;;;-2.95;100.00;100831.28;5014233;28;19968;-63
2022/12/10 05:40:23;;;;;;;;;;;;;;;-2.96;100.00;100829.59;5013869;28;19979;-63
2022/12/10 05:42:48;;;;;;;;;;;;;;;-2.95;100.00;100828.56;5013896;28;19952;-64
2022/12/10 05:45:14;;;;;;;;;;;;;;;-2.98;100.00;100827.13;5014039;28;20365;-63
2022/12/10 05:47:39;;;;;;;;;;;;;;;-2.98;100.00;100818.19;5014015;28;19913;-63
2022/12/10 05:50:04;;;;;;;;;;;;;;;-2.99;100.00;100824.66;5014045;28;20238;-63
2022/12/10 05:52:30;;;;;;;;;;;;;;;-3.01;100.00;100824.84;5013934;28;19914;-63
2022/12/10 05:54:55;;;;;;;;;;;;;;;-3.04;100.00;100833.41;5013741;28;19913;-63
2022/12/10 05:57:20;;;;;;;;;;;;;;;-3.02;100.00;100830.47;5013367;28;19917;-64
2022/12/10 05:59:45;;;;;;;;;;;;;;;-3.08;100.00;100840.28;5013884;28;20285;-63
2022/12/10 06:02:11;;;;;;;;;;;;;;;-3.10;100.00;100838.84;5013511;28;19918;-63
2022/12/10 06:04:36;;;;;;;;;;;;;;;-3.11;100.00;100835.31;5013754;28;19991;-63
2022/12/10 06:07:01;;;;;;;;;;;;;;;-3.15;100.00;100843.03;5013528;28;20001;-63
2022/12/10 06:09:26;;;;;;;;;;;;;;;-3.16;100.00;100830.53;5013514;28;19914;-63
2022/12/10 06:11:51;;;;;;;;;;;;;;;-2.96;100.00;100837.72;5012174;28;19917;-63
2022/12/10 06:14:17;;;;;;;;;;;;;;;-2.92;100.00;100835.41;5013284;28;20268;-63
2022/12/10 06:16:42;;;;;;;;;;;;;;;-2.99;100.00;100828.16;5013281;28;19956;-63
2022/12/10 06:19:07;;;;;;;;;;;;;;;-2.91;100.00;100832.50;5013157;28;20323;-63
2022/12/10 06:21:34;;;;;;;;;;;;;;;-2.95;100.00;100839.38;5013234;28;19935;-63
2022/12/10 06:23:59;;;;;;;;;;;;;;;-3.02;100.00;100836.72;5010567;28;19921;-63
2022/12/10 06:26:25;;;;;;;;;;;;;;;-3.03;100.00;100831.53;5013244;28;19913;-64
2022/12/10 06:28:50;;;;;;;;;;;;;;;-3.05;100.00;100834.47;5010863;28;19925;-64
2022/12/10 06:31:16;;;;;;;;;;;;;;;-3.04;100.00;100848.81;5000217;28;20016;-64
2022/12/10 06:33:41;;;;;;;;;;;;;;;-3.07;100.00;100847.38;4998744;28;20369;-64
2022/12/10 06:36:08;;;;;;;;;;;;;;;-3.04;100.00;100855.06;5012236;28;19913;-64
2022/12/10 06:38:34;;;;;;;;;;;;;;;-2.96;100.00;100851.25;5012165;28;19914;-64
2022/12/10 06:40:59;;;;;;;;;;;;;;;-2.99;100.00;100849.00;5012147;28;19920;-64
2022/12/10 06:43:27;;;;;;;;;;;;;;;-3.00;100.00;100861.69;5011984;28;19929;-65
2022/12/10 06:45:52;;;;;;;;;;;;;;;-2.99;100.00;100857.13;5011785;28;19913;-65
2022/12/10 06:48:18;;;;;;;;;;;;;;;-2.98;100.00;100856.91;5002466;28;20001;-65
2022/12/10 06:50:43;;;;;;;;;;;;;;;-2.85;100.00;100861.41;4992517;28;19914;-65
2022/12/10 06:53:08;;;;;;;;;;;;;;;-2.86;100.00;100864.34;4992436;28;19925;-65
2022/12/10 06:55:35;;;;;;;;;;;;;;;-2.86;100.00;100867.88;4992660;28;19914;-65
2022/12/10 06:58:00;;;;;;;;;;;;;;;-2.83;100.00;100870.16;4992318;28;19914;-65
2022/12/10 07:00:25;;;;;;;;;;;;;;;-2.76;100.00;100862.00;4992510;28;20293;-65
2022/12/10 07:02:51;;;;;;;;;;;;;;;-2.69;100.00;100854.66;4992228;28;19952;-65
2022/12/10 07:05:16;;;;;;;;;;;;;;;-2.64;100.00;100862.13;4991791;28;20374;-66
2022/12/10 07:07:42;;;;;;;;;;;;;;;-2.69;100.00;100859.25;4990924;28;19971;-66
2022/12/10 07:10:07;;;;;;;;;;;;;;;-2.80;100.00;100866.19;4991404;28;19940;-66
2022/12/10 07:12:33;;;;;;;;;;;;;;;-2.89;100.00;100867.47;4991321;28;20369;-66
2022/12/10 07:14:58;;;;;;;;;;;;;;;-2.91;100.00;100870.41;4991370;28;19914;-65
2022/12/10 07:17:23;;;;;;;;;;;;;;;-2.94;100.00;100870.03;4990778;28;20036;-66
2022/12/10 07:19:48;;;;;;;;;;;;;;;-2.99;100.00;100876.91;4989141;28;20334;-65
2022/12/10 07:22:14;;;;;;;;;;;;;;;-3.00;100.00;100874.41;4991202;28;19914;-65
2022/12/10 07:24:39;;;;;;;;;;;;;;;-2.99;100.00;100876.06;4991075;28;19917;-65
2022/12/10 07:27:05;;;;;;;;;;;;;;;-2.97;100.00;100876.66;4990848;28;19919;-65
2022/12/10 07:29:30;;;;;;;;;;;;;;;-2.94;100.00;100888.97;4990634;28;19913;-65
2022/12/10 07:31:55;;;;;;;;;;;;;;;-2.91;100.00;100891.22;4990631;28;20397;-65
2022/12/10 07:34:20;;;;;;;;;;;;;;;-2.86;100.00;100894.13;4990833;28;20004;-65
2022/12/10 07:36:46;;;;;;;;;;;;;;;-2.86;100.00;100889.53;4990878;28;19918;-65
2022/12/10 07:39:16;;;;;;;;;;;;;;;-2.87;100.00;100893.28;4990486;28;20357;-65
2022/12/10 07:41:42;;;;;;;;;;;;;;;-2.75;100.00;100888.03;5000727;28;19928;-64
2022/12/10 07:44:10;;;;;;;;;;;;;;;-2.84;100.00;100895.56;5010086;28;19913;-65
2022/12/10 07:46:35;;;;;;;;;;;;;;;-2.87;100.00;100898.69;5010913;28;19924;-65
2022/12/10 07:49:01;;;;;;;;;;;;;;;-2.82;100.00;100898.06;5011123;28;20009;-64
2022/12/10 07:51:26;;;;;;;;;;;;;;;-2.86;100.00;100908.50;5010778;28;19944;-65
2022/12/10 07:53:52;;;;;;;;;;;;;;;-2.84;100.00;100905.59;5010411;28;19924;-66
2022/12/10 07:56:18;;;;;;;;;;;;;;;-2.80;100.00;100916.81;5010704;28;19913;-66
2022/12/10 07:58:44;;;;;;;;;;;;;;;-2.77;100.00;100906.38;5010569;28;19913;-66
2022/12/10 08:01:11;;;;;;;;;;;;;;;-2.73;100.00;100904.06;5010915;28;19921;-66
2022/12/10 08:03:36;;;;;;;;;;;;;;;-2.77;100.00;100909.09;5011601;28;20012;-66
2022/12/10 08:06:03;;;;;;;;;;;;;;;-2.77;100.00;100905.53;5011925;28;20020;-66
2022/12/10 08:08:28;;;;;;;;;;;;;;;-2.76;100.00;100915.31;5010164;28;20356;-66
2022/12/10 08:10:54;;;;;;;;;;;;;;;-2.75;100.00;100927.81;5011672;28;19952;-66
2022/12/10 08:13:19;;;;;;;;;;;;;;;-2.70;100.00;100922.59;5011846;28;20205;-66
2022/12/10 08:15:44;;;;;;;;;;;;;;;-2.74;100.00;100926.78;5008859;28;20031;-66
2022/12/10 08:18:09;;;;;;;;;;;;;;;-2.75;100.00;100925.97;5011601;28;20024;-68
2022/12/10 08:20:35;;;;;;;;;;;;;;;-2.78;100.00;100936.34;5013071;28;19959;-66
2022/12/10 08:23:00;;;;;;;;;;;;;;;-2.73;100.00;100936.56;5015383;28;20292;-66
2022/12/10 08:25:26;;;;;;;;;;;;;;;-2.76;100.00;100934.28;5015884;28;19920;-65
2022/12/10 08:27:51;;;;;;;;;;;;;;;-2.77;100.00;100941.59;5015969;28;19917;-67
2022/12/10 08:30:16;;;;;;;;;;;;;;;-2.69;100.00;100944.03;5015088;28;19970;-66
2022/12/10 08:32:41;;;;;;;;;;;;;;;-2.62;100.00;100949.44;5014903;28;20030;-64
2022/12/10 08:35:08;;;;;;;;;;;;;;;-2.66;100.00;100945.47;5014727;28;19917;-64
2022/12/10 08:37:33;;;;;;;;;;;;;;;-2.54;100.00;100951.03;5014571;28;20128;-64
2022/12/10 08:39:58;;;;;;;;;;;;;;;-2.54;100.00;100943.75;5015000;28;20434;-64
2022/12/10 08:42:23;;;;;;;;;;;;;;;-2.52;100.00;100946.25;5015281;28;19917;-64
2022/12/10 08:44:50;;;;;;;;;;;;;;;-2.50;100.00;100957.69;5014933;28;19913;-65
2022/12/10 08:47:15;;;;;;;;;;;;;;;-2.38;100.00;100950.56;5014952;28;19921;-64
2022/12/10 08:49:40;;;;;;;;;;;;;;;-2.44;100.00;100948.69;5015100;28;20032;-64
2022/12/10 08:52:06;;;;;;;;;;;;;;;-2.48;100.00;100950.19;5015028;28;19913;-64
2022/12/10 08:54:31;;;;;;;;;;;;;;;-2.49;100.00;100951.25;5015495;28;20377;-65
2022/12/10 08:56:56;;;;;;;;;;;;;;;-2.46;100.00;100949.97;5014911;28;19917;-65
2022/12/10 08:59:21;;;;;;;;;;;;;;;-2.51;100.00;100953.31;5014950;28;19913;-65
2022/12/10 09:01:46;;;;;;;;;;;;;;;-2.52;100.00;100957.94;5014785;28;19967;-64
2022/12/10 09:04:12;;;;;;;;;;;;;;;-2.49;100.00;100956.66;5014708;28;19917;-64
2022/12/10 09:06:38;;;;;;;;;;;;;;;-2.47;100.00;100960.00;5014692;28;19993;-64
2022/12/10 09:09:03;;;;;;;;;;;;;;;-2.44;100.00;100962.25;5013467;28;19917;-64
2022/12/10 09:11:30;;;;;;;;;;;;;;;-2.47;100.00;100964.56;5013009;28;19914;-64
2022/12/10 09:13:56;;;;;;;;;;;;;;;-2.47;100.00;100965.41;5014551;28;19917;-64
2022/12/10 09:16:21;;;;;;;;;;;;;;;-2.45;100.00;100966.00;5014410;28;20421;-65
2022/12/10 09:18:47;;;;;;;;;;;;;;;-2.45;100.00;100965.19;5014342;28;19917;-66
2022/12/10 09:21:13;;;;;;;;;;;;;;;-2.44;100.00;100970.38;5014484;28;19955;-64
2022/12/10 09:23:39;;;;;;;;;;;;;;;-2.40;100.00;100968.91;5014518;28;19913;-66
2022/12/10 09:26:06;;;;;;;;;;;;;;;-2.40;100.00;100970.75;5014446;28;20284;-66
2022/12/10 09:28:31;;;;;;;;;;;;;;;-2.40;100.00;100978.91;5014258;28;19913;-66
2022/12/10 09:30:57;;;;;;;;;;;;;;;-2.37;100.00;100984.75;5013453;28;19913;-66
2022/12/10 09:33:23;;;;;;;;;;;;;;;-2.33;100.00;100982.44;5014045;28;19936;-66
2022/12/10 09:35:48;;;;;;;;;;;;;;;-2.30;100.00;100989.28;5013927;28;20365;-67
2022/12/10 09:38:13;;;;;;;;;;;;;;;-2.34;100.00;100986.19;5013882;28;19976;-66
2022/12/10 09:40:41;;;;;;;;;;;;;;;-2.38;100.00;100982.22;5029239;28;20409;-67
2022/12/10 09:43:22;;;;;;;;;;;;;;;-2.39;100.00;100986.81;5013783;28;20342;-65
2022/12/10 09:46:00;;;;;;;;;;;;;;;-2.37;100.00;100992.03;5013862;28;19913;-66
2022/12/10 09:48:28;;;;;;;;;;;;;;;-2.33;100.00;100985.13;5013803;28;19956;-65
2022/12/10 09:50:57;;;;;;;;;;;;;;;-2.24;100.00;100989.25;5013777;28;19917;-65
2022/12/10 09:53:24;;;;;;;;;;;;;;;-2.19;100.00;100985.88;5013846;28;19913;-66
2022/12/10 09:55:49;;;;;;;;;;;;;;;-2.17;100.00;100993.78;5013676;28;20353;-65
2022/12/10 09:58:19;;;;;;;;;;;;;;;-2.18;100.00;100992.97;5013607;28;19971;-65
2022/12/10 10:00:46;;;;;;;;;;;;;;;-2.11;100.00;100996.47;5013489;28;19913;-66
2022/12/10 10:03:12;;;;;;;;;;;;;;;-2.05;100.00;101003.72;5013431;28;20357;-65
2022/12/10 10:05:42;;;;;;;;;;;;;;;-2.02;100.00;100991.59;5010937;28;19979;-65
2022/12/10 10:08:13;;;;;;;;;;;;;;;-1.88;100.00;100997.75;5013692;28;19964;-65
2022/12/10 10:10:39;;;;;;;;;;;;;;;-1.91;100.00;101006.34;5013368;28;19956;-65
2022/12/10 10:13:05;;;;;;;;;;;;;;;-1.96;100.00;101003.47;5004765;28;19921;-64
2022/12/10 10:15:32;;;;;;;;;;;;;;;-2.00;100.00;101003.06;4992869;28;19917;-64
2022/12/10 10:18:01;;;;;;;;;;;;;;;-2.00;100.00;101004.97;4992307;28;19918;-65
2022/12/10 10:20:26;;;;;;;;;;;;;;;-2.03;100.00;101003.50;4992125;28;19914;-66
2022/12/10 10:22:53;;;;;;;;;;;;;;;-2.02;100.00;101007.06;4992013;28;19922;-66
2022/12/10 10:25:19;;;;;;;;;;;;;;;-2.02;100.00;101005.16;4992041;28;20013;-66
2022/12/10 10:27:44;;;;;;;;;;;;;;;-1.84;100.00;101006.31;4992193;28;20008;-66
2022/12/10 10:30:17;;;;;;;;;;;;;;;-1.82;100.00;101006.91;4992258;28;19914;-66
2022/12/10 10:32:45;;;;;;;;;;;;;;;-1.81;100.00;101003.16;4994209;28;19913;-66
2022/12/10 10:35:19;;;;;;;;;;;;;;;-1.77;100.00;101016.06;5013226;28;19917;-66
2022/12/10 10:37:44;;;;;;;;;;;;;;;-1.75;100.00;101011.25;5012959;28;19936;-66
2022/12/10 10:40:21;;;;;;;;;;;;;;;-1.57;100.00;101002.34;5012399;28;20377;-66
2022/12/10 10:42:46;;;;;;;;;;;;;;;-1.75;100.00;101000.41;5012066;28;20296;-67
2022/12/10 10:45:32;;;;;;;;;;;;;;;-1.80;100.00;100999.38;5012119;28;20342;-66
2022/12/10 10:48:03;;;;;;;;;;;;;;;-1.84;100.00;101001.72;5008521;28;19981;-68
2022/12/10 10:50:29;;;;;;;;;;;;;;;-1.81;100.00;101000.44;5012022;28;19913;-67
2022/12/10 10:52:54;;;;;;;;;;;;;;;-1.79;100.00;101001.06;5011860;28;19971;-65
2022/12/10 10:55:35;;;;;;;;;;;;;;;-1.70;100.00;101004.34;5011709;28;19964;-65
2022/12/10 10:58:00;;;;;;;;;;;;;;;-1.70;100.00;100990.78;5012012;28;19917;-65
2022/12/10 11:00:25;;;;;;;;;;;;;;;-1.75;100.00;100994.16;5010375;28;19924;-65
2022/12/10 11:02:51;;;;;;;;;;;;;;;-1.78;100.00;100994.59;5008332;28;19921;-66
2022/12/10 11:05:28;;;;;;;;;;;;;;;-1.66;100.00;100983.84;5011574;28;19924;-66
2022/12/10 11:07:57;;;;;;;;;;;;;;;-1.74;100.00;100985.78;5011247;28;19941;-66
2022/12/10 11:10:24;;;;;;;;;;;;;;;-1.61;100.00;100978.59;5011431;28;19920;-66
2022/12/10 11:13:09;;;;;;;;;;;;;;;-1.62;100.00;100979.66;5011497;28;19917;-65
2022/12/10 11:15:41;;;;;;;;;;;;;;;-1.61;100.00;100975.88;5003868;28;19920;-66
2022/12/10 11:18:24;;;;;;;;;;;;;;;-1.54;100.00;100989.38;5012208;28;20012;-66
2022/12/10 11:20:57;;;;;;;;;;;;;;;-1.53;100.00;100982.91;5011495;28;19917;-66
2022/12/10 11:23:26;;;;;;;;;;;;;;;-1.48;100.00;100985.78;5011151;28;19925;-66
2022/12/10 11:25:57;;;;;;;;;;;;;;;-1.55;100.00;100985.00;5011324;28;20400;-66
2022/12/10 11:28:28;;;;;;;;;;;;;;;-1.55;100.00;100991.28;5012000;28;19917;-66
2022/12/10 11:31:13;;;;;;;;;;;;;;;-1.55;100.00;100995.84;5006552;28;19929;-65
2022/12/10 11:33:52;;;;;;;;;;;;;;;-1.54;100.00;101005.66;5003155;28;19921;-66
2022/12/10 11:36:17;;;;;;;;;;;;;;;-1.51;100.00;100997.06;5001097;28;20000;-66
2022/12/10 11:38:45;;;;;;;;;;;;;;;-1.54;100.00;100995.66;5002074;28;20039;-65
2022/12/10 11:41:27;;;;;;;;;;;;;;;-1.59;100.00;100992.75;5002138;28;19913;-66
2022/12/10 11:44:04;;;;;;;;;;;;;;;-1.59;100.00;100988.16;5003261;28;19921;-67
2022/12/10 11:46:30;;;;;;;;;;;;;;;-1.60;100.00;100985.66;5000658;28;19936;-66
2022/12/10 11:49:07;;;;;;;;;;;;;;;-1.62;100.00;100985.88;5002770;28;20273;-66
2022/12/10 11:51:51;;;;;;;;;;;;;;;-1.58;100.00;100994.41;5002012;28;19952;-66
2022/12/10 11:54:16;;;;;;;;;;;;;;;-1.58;100.00;100981.69;5003845;28;19917;-66
2022/12/10 11:56:47;;;;;;;;;;;;;;;-1.52;100.00;100982.69;5013660;28;19918;-66
2022/12/10 11:59:18;;;;;;;;;;;;;;;-1.52;100.00;100984.56;5006601;28;19932;-66
2022/12/10 12:01:49;;;;;;;;;;;;;;;-1.51;100.00;100986.22;5003372;28;19918;-66
2022/12/10 12:04:23;;;;;;;;;;;;;;;-1.52;100.00;100988.13;4997778;28;19980;-66
2022/12/10 12:06:49;;;;;;;;;;;;;;;-1.55;100.00;100979.56;4995298;28;19928;-67
2022/12/10 12:09:29;;;;;;;;;;;;;;;-1.45;100.00;100993.47;4995410;28;19914;-67
2022/12/10 12:12:00;;;;;;;;;;;;;;;-1.46;100.00;100989.09;4995315;28;19937;-67
2022/12/10 12:14:32;;;;;;;;;;;;;;;-1.47;100.00;100980.13;4995318;28;20095;-67
2022/12/10 12:17:04;;;;;;;;;;;;;;;-1.48;100.00;100983.91;4995535;28;19968;-67
2022/12/10 12:19:42;;;;;;;;;;;;;;;-1.44;100.00;100976.13;4995305;28;20365;-64
2022/12/10 12:22:28;;;;;;;;;;;;;;;-1.51;100.00;100980.81;4995427;28;19952;-66
2022/12/10 12:24:58;;;;;;;;;;;;;;;-1.53;100.00;100977.47;4995035;28;19929;-64
2022/12/10 12:27:30;;;;;;;;;;;;;;;-1.48;100.00;100989.31;4995166;28;19991;-65
2022/12/10 12:30:04;;;;;;;;;;;;;;;-1.48;100.00;100986.59;4994886;28;19971;-65
2022/12/10 12:32:29;;;;;;;;;;;;;;;-1.47;100.00;100984.75;4995024;28;20360;-65
2022/12/10 12:35:27;;;;;;;;;;;;;;;-1.48;100.00;100981.19;4994655;28;19918;-65
2022/12/10 12:38:00;;;;;;;;;;;;;;;-1.49;100.00;100982.22;4972107;28;20004;-66
2022/12/10 12:40:44;;;;;;;;;;;;;;;-1.38;100.00;100980.69;4994935;28;19918;-65
2022/12/10 12:43:13;;;;;;;;;;;;;;;-1.18;100.00;100985.09;4994757;28;19913;-65